createdAt,value
2019-01-19T00:00:54.595Z,60.85
2019-01-19T00:03:21.746Z,51.55
2019-01-19T00:05:48.875Z,51.42
2019-01-19T00:08:16.070Z,43.08
2019-01-19T00:10:42.850Z,52.03
2019-01-19T00:13:09.998Z,46.40
2019-01-19T00:15:36.728Z,53.33
2019-01-19T00:18:03.886Z,47.65
2019-01-19T00:20:31.032Z,44.88
2019-01-19T00:22:58.130Z,50.33
2019-01-19T00:25:24.925Z,49.38
2019-01-19T00:27:51.586Z,59.27
2019-01-19T00:30:19.418Z,66.17
2019-01-19T00:32:46.621Z,59.90
2019-01-19T00:35:17.732Z,52.98
2019-01-19T00:37:42.460Z,54.83
2019-01-19T00:40:09.620Z,57.03
2019-01-19T00:42:36.763Z,68.67
2019-01-19T00:45:03.916Z,61.77
2019-01-19T00:47:30.708Z,56.65
2019-01-19T00:49:58.312Z,56.15
2019-01-19T00:52:25.468Z,53.75
2019-01-19T00:54:52.622Z,46.08
2019-01-19T00:57:19.766Z,53.80
2019-01-19T00:59:46.466Z,45.38
2019-01-19T01:02:13.666Z,51.53
2019-01-19T01:04:40.842Z,51.20
2019-01-19T01:07:07.750Z,46.45
2019-01-19T01:09:34.510Z,51.18
2019-01-19T01:12:01.172Z,52.38
2019-01-19T01:14:28.263Z,53.33
2019-01-19T01:16:55.443Z,54.15
2019-01-19T01:19:22.578Z,49.30
2019-01-19T01:21:49.782Z,50.43
2019-01-19T01:24:16.474Z,50.88
2019-01-19T01:26:43.648Z,47.73
2019-01-19T01:29:10.431Z,51.70
2019-01-19T01:31:37.086Z,54.77
2019-01-19T01:34:03.831Z,54.88
2019-01-19T01:36:30.525Z,60.88
2019-01-19T01:38:57.627Z,52.00
2019-01-19T01:41:24.793Z,54.30
2019-01-19T01:43:51.824Z,54.03
2019-01-19T01:46:18.966Z,57.23
2019-01-19T01:48:45.639Z,54.15
2019-01-19T01:51:12.658Z,53.02
2019-01-19T01:53:39.823Z,49.63
2019-01-19T01:56:07.510Z,59.67
2019-01-19T01:58:34.239Z,48.23
2019-01-19T02:01:01.384Z,52.03
2019-01-19T02:03:28.050Z,57.50
2019-01-19T02:05:54.721Z,57.00
2019-01-19T02:08:21.901Z,53.78
2019-01-19T02:10:48.700Z,59.13
2019-01-19T02:13:15.346Z,51.20
2019-01-19T02:15:42.440Z,49.53
2019-01-19T02:18:10.498Z,50.60
2019-01-19T02:20:37.670Z,55.50
2019-01-19T02:23:04.380Z,50.25
2019-01-19T02:25:31.536Z,47.00
2019-01-19T02:30:29.275Z,53.98
2019-01-19T02:32:57.089Z,52.15
2019-01-19T02:35:24.230Z,47.35
2019-01-19T02:37:51.228Z,49.98
2019-01-19T02:40:18.385Z,44.83
2019-01-19T02:42:46.087Z,49.23
2019-01-19T02:45:13.196Z,44.50
2019-01-19T02:47:40.583Z,44.20
2019-01-19T02:50:08.370Z,44.13
2019-01-19T02:52:36.110Z,49.20
2019-01-19T02:55:03.016Z,41.05
2019-01-19T02:57:30.199Z,46.58
2019-01-19T02:59:57.382Z,50.43
2019-01-19T03:02:24.041Z,44.40
2019-01-19T03:04:51.201Z,41.45
2019-01-19T03:07:18.304Z,39.63
2019-01-19T03:09:44.979Z,41.75
2019-01-19T03:12:12.977Z,40.03
2019-01-19T03:14:40.177Z,40.15
2019-01-19T03:17:07.264Z,39.75
2019-01-19T03:19:35.074Z,41.73
2019-01-19T03:22:02.860Z,41.53
2019-01-19T03:24:30.086Z,39.00
2019-01-19T03:26:57.858Z,44.93
2019-01-19T03:29:25.631Z,35.73
2019-01-19T03:31:52.779Z,39.55
2019-01-19T03:34:20.641Z,34.48
2019-01-19T03:36:47.729Z,35.83
2019-01-19T03:39:14.918Z,39.03
2019-01-19T03:41:42.737Z,37.58
2019-01-19T03:44:10.311Z,41.75
2019-01-19T03:46:37.497Z,33.95
2019-01-19T03:49:04.717Z,31.85
2019-01-19T03:51:32.435Z,35.17
2019-01-19T03:54:00.224Z,35.85
2019-01-19T03:56:27.314Z,31.93
2019-01-19T03:58:54.082Z,34.73
2019-01-19T04:01:21.261Z,38.70
2019-01-19T04:03:48.412Z,31.12
2019-01-19T04:06:16.214Z,34.10
2019-01-19T04:08:42.899Z,39.33
2019-01-19T04:11:09.679Z,86.72
2019-01-19T04:13:36.383Z,65.55
2019-01-19T04:16:04.156Z,57.65
2019-01-19T04:18:31.545Z,51.58
2019-01-19T04:20:58.643Z,54.15
2019-01-19T04:23:26.410Z,81.45
2019-01-19T04:25:54.087Z,53.40
2019-01-19T04:28:21.123Z,57.83
2019-01-19T04:30:49.535Z,37.13
2019-01-19T04:33:16.596Z,37.20
2019-01-19T04:35:44.430Z,41.60
2019-01-19T04:38:11.635Z,38.08
2019-01-19T04:40:39.452Z,41.58
2019-01-19T04:43:07.061Z,40.75
2019-01-19T04:45:34.276Z,45.30
2019-01-19T04:48:02.145Z,44.65
2019-01-19T04:50:29.282Z,46.63
2019-01-19T04:52:56.532Z,48.95
2019-01-19T04:55:24.171Z,47.08
2019-01-19T04:57:52.078Z,41.33
2019-01-19T05:00:19.809Z,42.55
2019-01-19T05:02:47.607Z,34.40
2019-01-19T05:05:15.480Z,43.33
2019-01-19T05:07:42.560Z,37.70
2019-01-19T05:10:10.251Z,31.20
2019-01-19T05:12:37.399Z,31.35
2019-01-19T05:15:05.193Z,31.07
2019-01-19T05:17:32.943Z,38.02
2019-01-19T05:20:00.097Z,36.42
2019-01-19T05:22:27.951Z,31.57
2019-01-19T05:24:56.853Z,33.63
2019-01-19T05:27:23.935Z,35.45
2019-01-19T05:29:51.007Z,36.98
2019-01-19T05:32:18.818Z,31.77
2019-01-19T05:34:45.614Z,30.65
2019-01-19T05:37:13.425Z,30.20
2019-01-19T05:39:40.535Z,30.60
2019-01-19T05:42:08.322Z,32.33
2019-01-19T05:44:36.144Z,32.23
2019-01-19T05:47:03.874Z,35.15
2019-01-19T05:49:32.090Z,36.63
2019-01-19T05:51:59.151Z,44.15
2019-01-19T05:54:26.175Z,77.53
2019-01-19T05:56:53.838Z,83.52
2019-01-19T05:59:20.910Z,51.50
2019-01-19T06:01:48.141Z,44.10
2019-01-19T06:04:15.967Z,40.12
2019-01-19T06:06:46.915Z,38.20
2019-01-19T06:09:13.604Z,41.77
2019-01-19T06:11:40.774Z,50.55
2019-01-19T06:14:07.430Z,41.40
2019-01-19T06:16:34.726Z,50.67
2019-01-19T06:19:01.818Z,42.05
2019-01-19T06:21:28.870Z,39.53
2019-01-19T06:23:56.410Z,39.95
2019-01-19T06:26:24.216Z,31.42
2019-01-19T06:28:51.408Z,31.33
2019-01-19T06:31:19.084Z,28.62
2019-01-19T06:33:46.723Z,26.70
2019-01-19T06:36:13.818Z,31.48
2019-01-19T06:38:41.032Z,31.87
2019-01-19T06:41:08.101Z,28.95
2019-01-19T06:43:34.821Z,26.35
2019-01-19T06:46:02.192Z,30.40
2019-01-19T06:48:28.869Z,29.48
2019-01-19T06:50:55.973Z,32.08
2019-01-19T06:53:23.086Z,33.75
2019-01-19T06:55:49.777Z,32.05
2019-01-19T06:58:16.794Z,29.48
2019-01-19T07:00:43.535Z,33.18
2019-01-19T07:03:10.611Z,31.37
2019-01-19T07:05:37.633Z,48.15
2019-01-19T07:08:04.782Z,52.73
2019-01-19T07:10:31.823Z,60.48
2019-01-19T07:12:58.895Z,67.17
2019-01-19T07:15:26.038Z,77.17
2019-01-19T07:17:52.731Z,61.73
2019-01-19T07:20:19.826Z,68.75
2019-01-19T07:22:46.882Z,66.37
2019-01-19T07:25:13.602Z,48.52
2019-01-19T07:27:41.077Z,44.42
2019-01-19T07:30:07.804Z,43.98
2019-01-19T07:32:34.849Z,48.65
2019-01-19T07:35:01.599Z,47.88
2019-01-19T07:37:28.667Z,51.95
2019-01-19T07:39:55.711Z,46.50
2019-01-19T07:42:22.835Z,48.48
2019-01-19T07:44:49.498Z,44.30
2019-01-19T07:47:16.650Z,39.00
2019-01-19T07:49:43.692Z,41.77
2019-01-19T07:52:10.837Z,46.40
2019-01-19T07:54:37.993Z,49.25
2019-01-19T07:57:04.655Z,49.65
2019-01-19T07:59:31.382Z,45.30
2019-01-19T08:01:58.107Z,43.73
2019-01-19T08:04:24.873Z,48.05
2019-01-19T08:06:52.240Z,38.30
2019-01-19T08:09:19.353Z,44.38
2019-01-19T08:11:46.505Z,46.53
2019-01-19T08:14:13.538Z,43.05
2019-01-19T08:16:40.710Z,44.27
2019-01-19T08:19:07.753Z,47.15
2019-01-19T08:21:34.929Z,48.10
2019-01-19T08:24:02.178Z,44.23
2019-01-19T08:26:29.304Z,42.98
2019-01-19T08:28:56.043Z,40.08
2019-01-19T08:31:23.204Z,44.42
2019-01-19T08:33:50.445Z,56.30
2019-01-19T08:36:17.088Z,63.58
2019-01-19T08:38:44.240Z,63.70
2019-01-19T08:41:11.289Z,62.85
2019-01-19T08:43:38.366Z,64.58
2019-01-19T08:46:05.484Z,53.13
2019-01-19T08:48:32.534Z,45.00
2019-01-19T08:50:59.260Z,38.20
2019-01-19T08:53:26.428Z,49.40
2019-01-19T08:55:53.505Z,47.00
2019-01-19T08:58:20.219Z,42.13
2019-01-19T09:00:46.933Z,47.60
2019-01-19T09:03:14.061Z,45.63
2019-01-19T09:05:40.809Z,39.10
2019-01-19T09:08:07.465Z,44.18
2019-01-19T09:10:34.518Z,44.53
2019-01-19T09:13:01.316Z,48.73
2019-01-19T09:15:27.999Z,45.70
2019-01-19T09:17:54.677Z,48.83
2019-01-19T09:20:21.811Z,54.63
2019-01-19T09:22:48.952Z,51.18
2019-01-19T09:25:15.690Z,55.78
2019-01-19T09:27:42.366Z,52.05
2019-01-19T09:30:09.795Z,47.67
2019-01-19T09:32:36.966Z,52.17
2019-01-19T09:35:03.675Z,51.70
2019-01-19T09:37:30.428Z,52.60
2019-01-19T09:39:57.103Z,58.17
2019-01-19T09:42:24.214Z,70.60
2019-01-19T09:44:50.941Z,65.40
2019-01-19T09:47:18.760Z,63.05
2019-01-19T09:49:45.842Z,59.90
2019-01-19T09:52:20.912Z,55.35
2019-01-19T09:54:42.548Z,57.80
2019-01-19T09:57:09.290Z,59.85
2019-01-19T09:59:36.007Z,54.03
2019-01-19T10:02:03.054Z,51.98
2019-01-19T10:04:30.132Z,56.33
2019-01-19T10:06:57.243Z,50.05
2019-01-19T10:09:24.283Z,56.25
2019-01-19T10:11:51.321Z,60.15
2019-01-19T10:14:18.111Z,67.15
2019-01-19T10:16:45.240Z,65.72
2019-01-19T10:19:12.439Z,68.92
2019-01-19T10:21:39.243Z,62.50
2019-01-19T10:24:05.988Z,56.48
2019-01-19T10:26:33.072Z,60.00
2019-01-19T10:29:00.165Z,54.53
2019-01-19T10:31:27.211Z,56.80
2019-01-19T10:33:54.345Z,61.98
2019-01-19T10:36:22.193Z,53.80
2019-01-19T10:38:49.948Z,56.20
2019-01-19T10:43:56.619Z,62.58
2019-01-19T10:46:23.736Z,66.12
2019-01-19T10:48:50.425Z,73.70
2019-01-19T10:51:17.498Z,83.65
2019-01-19T10:53:44.239Z,79.15
2019-01-19T10:56:10.884Z,84.58
2019-01-19T10:58:38.031Z,85.83
2019-01-19T11:01:05.104Z,103.85
2019-01-19T11:03:32.796Z,68.87
2019-01-19T11:05:59.607Z,61.35
2019-01-19T11:08:26.661Z,51.85
2019-01-19T11:10:53.752Z,62.67
2019-01-19T11:13:21.624Z,69.70
2019-01-19T11:15:48.272Z,63.50
2019-01-19T11:18:15.246Z,67.53
2019-01-19T11:20:42.406Z,61.18
2019-01-19T11:23:09.581Z,54.63
2019-01-19T11:25:36.329Z,55.55
2019-01-19T11:28:03.438Z,49.23
2019-01-19T11:30:30.490Z,50.70
2019-01-19T11:32:57.279Z,36.65
2019-01-19T11:35:23.955Z,32.75
2019-01-19T11:37:51.792Z,29.75
2019-01-19T11:40:19.660Z,17.62
2019-01-19T11:42:46.839Z,15.10
2019-01-19T11:45:13.991Z,22.20
2019-01-19T11:47:41.082Z,30.45
2019-01-19T11:50:08.216Z,30.35
2019-01-19T11:52:35.488Z,39.58
2019-01-19T11:55:02.590Z,38.28
2019-01-19T11:57:29.741Z,39.70
2019-01-19T11:59:58.763Z,41.77
2019-01-19T12:02:26.552Z,47.08
2019-01-19T12:04:53.574Z,45.80
2019-01-19T12:07:20.602Z,12.13
2019-01-19T12:09:47.507Z,29.72
2019-01-19T12:12:14.813Z,38.15
2019-01-19T12:14:42.149Z,32.35
2019-01-19T12:17:09.916Z,35.78
2019-01-19T12:19:36.905Z,32.03
2019-01-19T12:22:04.093Z,26.40
2019-01-19T12:24:31.181Z,13.93
2019-01-19T12:26:58.362Z,21.07
2019-01-19T12:29:25.457Z,22.50
2019-01-19T12:31:52.522Z,24.60
2019-01-19T12:34:19.252Z,23.80
2019-01-19T12:36:46.030Z,25.05
2019-01-19T12:39:12.678Z,14.68
2019-01-19T12:41:39.396Z,18.57
2019-01-19T12:44:06.564Z,20.95
2019-01-19T12:46:33.211Z,21.23
2019-01-19T12:48:59.927Z,19.60
2019-01-19T12:51:26.869Z,23.47
2019-01-19T12:53:53.916Z,15.98
2019-01-19T12:56:20.637Z,21.05
2019-01-19T12:58:47.363Z,23.05
2019-01-19T13:01:14.038Z,22.02
2019-01-19T13:03:40.762Z,17.42
2019-01-19T13:06:07.864Z,14.47
2019-01-19T13:08:34.767Z,11.00
2019-01-19T13:11:01.670Z,11.15
2019-01-19T13:13:28.384Z,9.40
2019-01-19T13:15:55.498Z,12.25
2019-01-19T13:18:23.438Z,10.85
2019-01-19T13:20:50.629Z,13.80
2019-01-19T13:23:17.803Z,10.23
2019-01-19T13:25:44.899Z,11.75
2019-01-19T13:28:12.101Z,19.15
2019-01-19T13:30:38.777Z,17.73
2019-01-19T13:33:05.883Z,20.23
2019-01-19T13:35:32.600Z,13.88
2019-01-19T13:37:59.781Z,13.65
2019-01-19T13:40:26.907Z,12.10
2019-01-19T13:42:54.711Z,10.60
2019-01-19T13:45:21.827Z,13.00
2019-01-19T13:47:48.983Z,15.40
2019-01-19T13:50:16.097Z,14.78
2019-01-19T13:52:42.805Z,10.70
2019-01-19T13:55:10.055Z,9.30
2019-01-19T13:57:36.820Z,8.98
2019-01-19T14:00:03.427Z,8.58
2019-01-19T14:02:30.056Z,10.03
2019-01-19T14:04:57.242Z,9.63
2019-01-19T14:07:23.870Z,10.58
2019-01-19T14:09:51.004Z,8.83
2019-01-19T14:12:18.117Z,11.25
2019-01-19T14:14:45.389Z,25.10
2019-01-19T14:17:12.543Z,12.98
2019-01-19T14:19:39.658Z,11.83
2019-01-19T14:22:06.368Z,13.98
2019-01-19T14:24:33.059Z,13.58
2019-01-19T14:27:00.842Z,14.95
2019-01-19T14:29:28.002Z,9.90
2019-01-19T14:31:54.637Z,10.90
2019-01-19T14:34:21.734Z,13.60
2019-01-19T14:36:48.455Z,11.30
2019-01-19T14:39:15.516Z,12.47
2019-01-19T14:41:42.239Z,14.70
2019-01-19T14:44:09.428Z,10.38
2019-01-19T14:46:36.078Z,11.30
2019-01-19T14:49:03.176Z,14.30
2019-01-19T14:51:29.967Z,17.65
2019-01-19T14:53:57.110Z,16.60
2019-01-19T14:56:24.794Z,17.90
2019-01-19T14:58:51.569Z,18.23
2019-01-19T15:01:18.670Z,14.70
2019-01-19T15:03:45.394Z,17.70
2019-01-19T15:06:12.106Z,16.95
2019-01-19T15:08:38.764Z,19.55
2019-01-19T15:11:05.457Z,32.25
2019-01-19T15:13:32.246Z,38.83
2019-01-19T15:15:58.899Z,84.77
2019-01-19T15:18:25.956Z,59.65
2019-01-19T15:20:53.439Z,35.10
2019-01-19T15:23:20.604Z,27.07
2019-01-19T15:25:47.830Z,30.50
2019-01-19T15:28:14.961Z,98.90
2019-01-19T15:30:42.302Z,109.70
2019-01-19T15:33:09.011Z,161.57
2019-01-19T15:35:36.161Z,147.43
2019-01-19T15:38:03.390Z,217.25
2019-01-19T15:40:30.038Z,203.77
2019-01-19T15:42:57.147Z,166.22
2019-01-19T15:45:24.478Z,215.35
2019-01-19T15:47:51.672Z,264.45
2019-01-19T15:50:19.455Z,227.70
2019-01-19T15:52:46.668Z,85.72
2019-01-19T15:55:13.389Z,64.32
2019-01-19T15:57:40.771Z,68.90
2019-01-19T16:02:46.818Z,83.05
2019-01-19T16:05:13.619Z,72.92
2019-01-19T16:07:40.707Z,62.03
2019-01-19T16:10:07.759Z,60.92
2019-01-19T16:12:35.010Z,62.55
2019-01-19T16:15:02.061Z,79.00
2019-01-19T16:17:29.156Z,69.45
2019-01-19T16:19:56.379Z,58.90
2019-01-19T16:22:23.070Z,62.05
2019-01-19T16:24:50.170Z,60.73
2019-01-19T16:27:17.315Z,53.73
2019-01-19T16:29:44.358Z,64.22
2019-01-19T16:32:11.137Z,60.15
2019-01-19T16:34:37.860Z,88.37
2019-01-19T16:37:04.901Z,153.45
2019-01-19T16:39:32.824Z,229.97
2019-01-19T16:41:59.503Z,288.80
2019-01-19T16:44:26.555Z,289.38
2019-01-19T16:46:53.324Z,260.90
2019-01-19T16:49:20.462Z,196.30
2019-01-19T16:51:47.597Z,204.28
2019-01-19T16:54:14.681Z,198.80
2019-01-19T16:56:41.785Z,230.35
2019-01-19T16:59:09.332Z,251.70
2019-01-19T17:01:36.192Z,238.43
2019-01-19T17:04:02.914Z,238.65
2019-01-19T17:06:30.121Z,259.98
2019-01-19T17:08:56.852Z,335.73
2019-01-19T17:11:23.981Z,336.90
2019-01-19T17:13:51.103Z,292.45
2019-01-19T17:16:17.818Z,235.95
2019-01-19T17:18:44.505Z,220.20
2019-01-19T17:21:11.591Z,272.93
2019-01-19T17:23:38.281Z,252.70
2019-01-19T17:26:04.998Z,221.20
2019-01-19T17:28:31.712Z,173.60
2019-01-19T17:30:58.407Z,159.70
2019-01-19T17:33:25.189Z,177.12
2019-01-19T17:35:52.964Z,189.70
2019-01-19T17:38:19.621Z,325.90
2019-01-19T17:40:46.374Z,294.05
2019-01-19T17:43:13.063Z,276.27
2019-01-19T17:45:39.785Z,440.15
2019-01-19T17:48:06.927Z,306.43
2019-01-19T17:50:33.620Z,270.00
2019-01-19T17:53:00.749Z,232.83
2019-01-19T17:55:27.993Z,241.85
2019-01-19T17:57:54.643Z,265.50
2019-01-19T18:00:21.703Z,263.57
2019-01-19T18:02:48.426Z,317.55
2019-01-19T18:05:15.556Z,315.70
2019-01-19T18:07:42.696Z,389.32
2019-01-19T18:10:09.353Z,326.15
2019-01-19T18:12:36.058Z,387.55
2019-01-19T18:15:03.267Z,332.98
2019-01-19T18:17:30.378Z,319.40
2019-01-19T18:19:57.179Z,327.65
2019-01-19T18:22:24.306Z,364.45
2019-01-19T18:24:51.451Z,364.12
2019-01-19T18:27:18.551Z,342.50
2019-01-19T18:29:46.259Z,330.43
2019-01-19T18:32:13.376Z,303.60
2019-01-19T18:34:40.533Z,249.77
2019-01-19T18:37:07.579Z,197.20
2019-01-19T18:39:35.659Z,176.57
2019-01-19T18:42:02.817Z,162.40
2019-01-19T18:44:30.493Z,147.93
2019-01-19T18:46:57.645Z,142.20
2019-01-19T18:49:24.793Z,119.67
2019-01-19T18:51:51.907Z,131.12
2019-01-19T18:54:18.578Z,126.30
2019-01-19T18:56:45.778Z,113.95
2019-01-19T18:59:12.858Z,110.28
2019-01-19T19:01:39.520Z,118.72
2019-01-19T19:04:07.286Z,105.75
2019-01-19T19:06:34.391Z,113.65
2019-01-19T19:09:01.460Z,98.65
2019-01-19T19:11:28.502Z,105.45
2019-01-19T19:13:55.536Z,105.80
2019-01-19T19:16:22.265Z,114.77
2019-01-19T19:18:49.478Z,133.22
2019-01-19T19:21:16.697Z,134.72
2019-01-19T19:23:45.532Z,141.05
2019-01-19T19:26:12.762Z,153.45
2019-01-19T19:28:39.491Z,162.95
2019-01-19T19:31:06.411Z,187.35
2019-01-19T19:33:33.457Z,173.70
2019-01-19T19:36:00.630Z,182.90
2019-01-19T19:38:27.667Z,157.05
2019-01-19T19:40:55.501Z,190.20
2019-01-19T19:43:22.594Z,176.50
2019-01-19T19:45:50.401Z,191.22
2019-01-19T19:48:17.090Z,154.72
2019-01-19T19:50:44.900Z,162.03
2019-01-19T19:53:13.449Z,154.57
2019-01-19T19:55:41.583Z,159.25
2019-01-19T19:58:09.154Z,177.30
2019-01-19T20:00:36.300Z,180.87
2019-01-19T20:03:05.160Z,162.18
2019-01-19T20:05:33.862Z,143.60
2019-01-19T20:08:02.448Z,142.90
2019-01-19T20:10:30.428Z,99.13
2019-01-19T20:12:59.225Z,95.67
2019-01-19T20:15:26.378Z,89.03
2019-01-19T20:17:55.469Z,84.05
2019-01-19T20:20:22.307Z,91.97
2019-01-19T20:22:49.028Z,101.82
2019-01-19T20:25:16.211Z,103.83
2019-01-19T20:27:43.712Z,98.35
2019-01-19T20:30:10.939Z,96.55
2019-01-19T20:32:37.689Z,92.57
2019-01-19T20:35:04.457Z,105.03
2019-01-19T20:37:32.031Z,110.80
2019-01-19T20:39:59.074Z,121.45
2019-01-19T20:42:26.147Z,107.27
2019-01-19T20:44:52.975Z,125.78
2019-01-19T20:47:19.704Z,122.47
2019-01-19T20:49:47.592Z,129.90
2019-01-19T20:52:14.658Z,171.90
2019-01-19T20:54:42.512Z,187.70
2019-01-19T20:57:10.333Z,210.20
2019-01-19T20:59:38.814Z,192.92
2019-01-19T21:02:05.554Z,169.72
2019-01-19T21:04:33.346Z,182.55
2019-01-19T21:07:00.565Z,148.47
2019-01-19T21:09:28.147Z,174.60
2019-01-19T21:11:55.935Z,173.00
2019-01-19T21:14:23.633Z,153.85
2019-01-19T21:16:51.550Z,174.18
2019-01-19T21:19:18.978Z,164.62
2019-01-19T21:21:47.279Z,157.45
2019-01-19T21:24:14.758Z,161.12
2019-01-19T21:26:42.051Z,175.15
2019-01-19T21:29:10.274Z,157.18
2019-01-19T21:31:37.665Z,165.68
2019-01-19T21:34:06.739Z,153.57
2019-01-19T21:36:34.240Z,160.10
2019-01-19T21:39:02.647Z,187.47
2019-01-19T21:41:29.620Z,157.27
2019-01-19T21:43:56.682Z,180.15
2019-01-19T21:46:23.591Z,153.53
2019-01-19T21:48:51.403Z,169.60
2019-01-19T21:51:20.267Z,177.10
2019-01-19T21:53:47.692Z,170.92
2019-01-19T21:56:15.393Z,163.15
2019-01-19T21:58:42.507Z,206.80
2019-01-19T22:01:10.556Z,225.72
2019-01-19T22:03:37.752Z,241.97
2019-01-19T22:06:04.588Z,247.85
2019-01-19T22:08:32.537Z,255.07
2019-01-19T22:10:59.749Z,241.02
2019-01-19T22:13:27.052Z,236.15
2019-01-19T22:15:55.140Z,191.35
2019-01-19T22:18:22.943Z,174.40
2019-01-19T22:20:50.589Z,164.55
2019-01-19T22:23:18.020Z,126.40
2019-01-19T22:25:45.176Z,117.33
2019-01-19T22:28:12.257Z,118.57
2019-01-19T22:30:39.819Z,145.22
2019-01-19T22:33:06.566Z,163.55
2019-01-19T22:35:33.715Z,182.30
2019-01-19T22:38:00.768Z,164.30
2019-01-19T22:40:28.526Z,179.38
2019-01-19T22:42:55.342Z,173.35
2019-01-19T22:45:22.454Z,158.82
2019-01-19T22:47:49.588Z,151.78
2019-01-19T22:50:16.885Z,136.65
2019-01-19T22:52:43.988Z,144.00
2019-01-19T22:55:11.155Z,151.53
2019-01-19T22:57:38.288Z,148.65
2019-01-19T23:00:05.320Z,150.50
2019-01-19T23:02:32.412Z,143.13
2019-01-19T23:04:59.510Z,148.15
2019-01-19T23:07:26.241Z,157.82
2019-01-19T23:09:54.070Z,152.02
2019-01-19T23:12:21.152Z,150.00
2019-01-19T23:14:48.239Z,125.25
2019-01-19T23:17:15.977Z,143.20
2019-01-19T23:19:43.197Z,149.60
2019-01-19T23:22:10.404Z,149.07
2019-01-19T23:24:37.101Z,155.30
2019-01-19T23:27:04.216Z,163.92
2019-01-19T23:29:31.528Z,161.52
2019-01-19T23:31:58.222Z,194.52
2019-01-19T23:34:25.991Z,186.43
2019-01-19T23:36:53.213Z,192.90
2019-01-19T23:39:19.895Z,185.75
2019-01-19T23:41:46.996Z,166.68
2019-01-19T23:44:14.163Z,159.05
2019-01-19T23:46:40.830Z,170.92
2019-01-19T23:49:07.525Z,166.00
2019-01-19T23:51:34.802Z,180.12
2019-01-19T23:54:01.927Z,181.47
2019-01-19T23:56:29.738Z,193.40
2019-01-19T23:58:56.941Z,179.27
